Panus — HGKM — position and weather

sailwx.info

Track history (hours):
 
Tides and Currents Weather Stations Pressure Air Temp Water Temp Dewpoint Dewpoint Depression Visibility Wind Speed Wind Dir Waves Ship Positions

Panus

Last reported at 2018-Jul-19 21:48 UTC. Time now 2018-Jul-20 01:05 UTC.
Position N 44°42' E 020°42'.

Length 143 m; draft 1.6 m.

MMSI: 243071113.

Date/timePositionNaut miles runAvg speedWind from/ knotsBaromVisibWave heightAir tempDewpointWater temp
2018-Jul-19 21:48N 44°42' E 020°42'2 6.4
2018-Jul-19 21:30N 44°44' E 020°41'3 6.2
2018-Jul-19 21:00N 44°46' E 020°38'3 5.8
2018-Jul-19 20:31N 44°49' E 020°39'3 5.4
2018-Jul-19 20:01N 44°51' E 020°37'3 6.0
2018-Jul-19 19:31N 44°50' E 020°33'3 5.8
2018-Jul-19 19:01N 44°50' E 020°29'3 6.1
2018-Jul-19 18:30N 44°51' E 020°25'3 6.2
2018-Jul-19 18:00N 44°53' E 020°21'3 6.1
2018-Jul-19 17:30N 44°56' E 020°19'3 6.2
2018-Jul-19 17:00N 44°58' E 020°17'3 5.4
2018-Jul-19 16:30N 45°00' E 020°20'3 5.4
2018-Jul-19 15:59N 45°03' E 020°21'17 4.9
2018-Jul-19 12:26N 45°19' E 020°15'2 3.3
2018-Jul-19 11:56N 45°21' E 020°15'3 5.0
2018-Jul-19 11:27N 45°23' E 020°12'6 4.5
2018-Jul-19 10:08N 45°28' E 020°10'2 5.4
2018-Jul-19 09:41N 45°30' E 020°08'6 0.9
2018-Jul-19 03:26N 45°35' E 020°04'2 2.7
2018-Jul-19 02:49N 45°37' E 020°05'  
2018-Jul-14 08:54N 45°31' E 020°06'1 3.1
2018-Jul-14 08:30N 45°31' E 020°08'2 3.2
2018-Jul-14 07:52N 45°29' E 020°09'5 3.0
2018-Jul-14 06:12N 45°25' E 020°13'1 3.4
2018-Jul-14 06:00N 45°24' E 020°13'2 3.1
2018-Jul-14 05:29N 45°22' E 020°12'2 3.2
2018-Jul-14 05:00N 45°21' E 020°14'2 3.1
2018-Jul-14 04:21N 45°20' E 020°16'1 2.9
2018-Jul-14 04:00N 45°19' E 020°15'7 0.6
2018-Jul-13 16:51N 45°13' E 020°19'1 3.1
2018-Jul-13 16:27N 45°12' E 020°19'8 2.5
2018-Jul-13 13:10N 45°04' E 020°21'0 2.9
2018-Jul-13 13:00N 45°03' E 020°21'1 2.9
2018-Jul-13 12:30N 45°02' E 020°22'1 2.7
2018-Jul-13 12:00N 45°01' E 020°21'2 3.2
2018-Jul-13 11:30N 44°60' E 020°19'2 3.1
2018-Jul-13 11:00N 44°59' E 020°18'2 3.2
2018-Jul-13 10:30N 44°57' E 020°18'2 3.4
2018-Jul-13 10:00N 44°56' E 020°19'2 3.1
2018-Jul-13 09:30N 44°55' E 020°20'2 3.3
2018-Jul-13 09:01N 44°53' E 020°21'2 3.1
2018-Jul-13 08:31N 44°52' E 020°23'1 2.9
2018-Jul-13 08:01N 44°51' E 020°24'2 3.3
2018-Jul-13 07:31N 44°51' E 020°26'2 3.3
2018-Jul-13 07:01N 44°50' E 020°28'2 3.3
2018-Jul-13 06:31N 44°50' E 020°31'2 3.5
2018-Jul-13 06:01N 44°50' E 020°33'2 3.4
2018-Jul-13 05:31N 44°51' E 020°35'2 3.3
2018-Jul-13 05:01N 44°51' E 020°38'2 3.5
2018-Jul-13 04:30N 44°49' E 020°39'2 3.6
2018-Jul-13 04:00N 44°48' E 020°38'3 3.4
2018-Jul-13 03:16N 44°45' E 020°38'5 1.4
2018-Jul-12 23:52N 44°42' E 020°43'0 0.0
2018-Jul-12 23:30N 44°42' E 020°43'0 0.0
2018-Jul-12 23:00N 44°42' E 020°43'0 0.0
2018-Jul-12 22:30N 44°42' E 020°43'0 0.0
2018-Jul-12 22:00N 44°42' E 020°43'0 0.0
2018-Jul-12 21:30N 44°42' E 020°43'0 0.5
2018-Jul-12 21:00N 44°41' E 020°43'2 3.5
2018-Jul-12 20:30N 44°40' E 020°45'2 3.4
2018-Jul-12 20:00N 44°40' E 020°47'2 3.1
2018-Jul-12 19:30N 44°39' E 020°49'2 3.7
2018-Jul-12 18:59N 44°40' E 020°52'2 3.6
2018-Jul-12 18:29N 44°40' E 020°54'1 0.7
2018-Jul-12 17:37N 44°40' E 020°55'0 0.0
2018-Jul-12 17:17N 44°40' E 020°55'0 0.0
2018-Jul-12 15:39N 44°40' E 020°55'0 1.7
2018-Jul-12 15:30N 44°40' E 020°55'2 3.8
2018-Jul-12 15:00N 44°41' E 020°57'3 4.0
2018-Jul-12 14:08N 44°43' E 021°01'0 3.8
2018-Jul-12 14:00N 44°43' E 021°02'1 1.0
2018-Jul-12 13:28N 44°43' E 021°02'2 4.3
2018-Jul-12 12:57N 44°41' E 021°03'2 0.2
2018-Jul-12 00:09N 44°43' E 021°02'0 0.0
2018-Jul-12 00:00N 44°43' E 021°02'0 0.0
2018-Jul-11 23:30N 44°43' E 021°02'0 0.0
2018-Jul-11 23:00N 44°43' E 021°02'0 0.0
2018-Jul-11 22:30N 44°43' E 021°02'0 0.0
2018-Jul-11 22:00N 44°43' E 021°02'0 0.0
2018-Jul-11 21:31N 44°43' E 021°02'0 0.0
2018-Jul-11 21:00N 44°43' E 021°02'0 0.0
2018-Jul-11 20:31N 44°43' E 021°02'0 0.0
2018-Jul-11 20:00N 44°43' E 021°02'0 0.0
2018-Jul-11 19:30N 44°43' E 021°02'0 0.1
2018-Jul-11 19:00N 44°43' E 021°02'0 0.0
2018-Jul-10 19:59N 44°43' E 021°02'3 5.7
2018-Jul-10 19:30N 44°43' E 020°59'3 6.8
2018-Jul-10 19:01N 44°40' E 020°55'3 6.8
2018-Jul-10 18:31N 44°39' E 020°50'3 6.9
2018-Jul-10 18:00N 44°40' E 020°46'3 6.4
2018-Jul-10 17:31N 44°42' E 020°42'3 6.3
2018-Jul-10 17:01N 44°44' E 020°40'3 6.0
2018-Jul-10 16:30N 44°47' E 020°38'3 6.0
2018-Jul-10 16:01N 44°50' E 020°39'3 5.5
2018-Jul-10 15:31N 44°51' E 020°35'3 6.4
2018-Jul-10 15:01N 44°50' E 020°31'3 6.4
2018-Jul-10 14:30N 44°50' E 020°26'3 6.6
2018-Jul-10 14:00N 44°52' E 020°22'3 6.6
2018-Jul-10 13:30N 44°55' E 020°20'3 6.8
2018-Jul-10 13:00N 44°58' E 020°17'3 5.8
2018-Jul-10 12:30N 45°00' E 020°20'3 5.6
2018-Jul-10 12:00N 45°03' E 020°22'17 5.1
2018-Jul-10 08:38N 45°19' E 020°15'1 4.8
2018-Jul-10 08:29N 45°20' E 020°15'2 3.7
2018-Jul-10 08:00N 45°21' E 020°14'7 4.6
2018-Jul-10 06:23N 45°28' E 020°10'2 5.5
2018-Jul-10 06:00N 45°30' E 020°08'5 3.0
2018-Jul-10 04:19N 45°35' E 020°08'0 0.3
2018-Jul-10 03:26N 45°35' E 020°08'  
Track history (hours):
 
Tides and Currents Weather Stations Pressure Air Temp Water Temp Dewpoint Dewpoint Depression Visibility Wind Speed Wind Dir Waves Ship Positions

Panus

Last reported at 2018-Jul-19 21:48 UTC. Time now 2018-Jul-20 01:05 UTC.
Position N 44°42' E 020°42'.

Length 143 m; draft 1.6 m.

MMSI: 243071113.

Date/timePositionNaut miles runAvg speedWind from/ knotsBaromVisibWave heightAir tempDewpointWater temp
2018-Jul-19 21:48N 44°42' E 020°42'2 6.4
2018-Jul-19 21:30N 44°44' E 020°41'3 6.2
2018-Jul-19 21:00N 44°46' E 020°38'3 5.8
2018-Jul-19 20:31N 44°49' E 020°39'3 5.4
2018-Jul-19 20:01N 44°51' E 020°37'3 6.0
2018-Jul-19 19:31N 44°50' E 020°33'3 5.8
2018-Jul-19 19:01N 44°50' E 020°29'3 6.1
2018-Jul-19 18:30N 44°51' E 020°25'3 6.2
2018-Jul-19 18:00N 44°53' E 020°21'3 6.1
2018-Jul-19 17:30N 44°56' E 020°19'3 6.2
2018-Jul-19 17:00N 44°58' E 020°17'3 5.4
2018-Jul-19 16:30N 45°00' E 020°20'3 5.4
2018-Jul-19 15:59N 45°03' E 020°21'17 4.9
2018-Jul-19 12:26N 45°19' E 020°15'2 3.3
2018-Jul-19 11:56N 45°21' E 020°15'3 5.0
2018-Jul-19 11:27N 45°23' E 020°12'6 4.5
2018-Jul-19 10:08N 45°28' E 020°10'2 5.4
2018-Jul-19 09:41N 45°30' E 020°08'6 0.9
2018-Jul-19 03:26N 45°35' E 020°04'2 2.7
2018-Jul-19 02:49N 45°37' E 020°05'  
2018-Jul-14 08:54N 45°31' E 020°06'1 3.1
2018-Jul-14 08:30N 45°31' E 020°08'2 3.2
2018-Jul-14 07:52N 45°29' E 020°09'5 3.0
2018-Jul-14 06:12N 45°25' E 020°13'1 3.4
2018-Jul-14 06:00N 45°24' E 020°13'2 3.1
2018-Jul-14 05:29N 45°22' E 020°12'2 3.2
2018-Jul-14 05:00N 45°21' E 020°14'2 3.1
2018-Jul-14 04:21N 45°20' E 020°16'1 2.9
2018-Jul-14 04:00N 45°19' E 020°15'7 0.6
2018-Jul-13 16:51N 45°13' E 020°19'1 3.1
2018-Jul-13 16:27N 45°12' E 020°19'8 2.5
2018-Jul-13 13:10N 45°04' E 020°21'0 2.9
2018-Jul-13 13:00N 45°03' E 020°21'1 2.9
2018-Jul-13 12:30N 45°02' E 020°22'1 2.7
2018-Jul-13 12:00N 45°01' E 020°21'2 3.2
2018-Jul-13 11:30N 44°60' E 020°19'2 3.1
2018-Jul-13 11:00N 44°59' E 020°18'2 3.2
2018-Jul-13 10:30N 44°57' E 020°18'2 3.4
2018-Jul-13 10:00N 44°56' E 020°19'2 3.1
2018-Jul-13 09:30N 44°55' E 020°20'2 3.3
2018-Jul-13 09:01N 44°53' E 020°21'2 3.1
2018-Jul-13 08:31N 44°52' E 020°23'1 2.9
2018-Jul-13 08:01N 44°51' E 020°24'2 3.3
2018-Jul-13 07:31N 44°51' E 020°26'2 3.3
2018-Jul-13 07:01N 44°50' E 020°28'2 3.3
2018-Jul-13 06:31N 44°50' E 020°31'2 3.5
2018-Jul-13 06:01N 44°50' E 020°33'2 3.4
2018-Jul-13 05:31N 44°51' E 020°35'2 3.3
2018-Jul-13 05:01N 44°51' E 020°38'2 3.5
2018-Jul-13 04:30N 44°49' E 020°39'2 3.6
2018-Jul-13 04:00N 44°48' E 020°38'3 3.4
2018-Jul-13 03:16N 44°45' E 020°38'5 1.4
2018-Jul-12 23:52N 44°42' E 020°43'0 0.0
2018-Jul-12 23:30N 44°42' E 020°43'0 0.0
2018-Jul-12 23:00N 44°42' E 020°43'0 0.0
2018-Jul-12 22:30N 44°42' E 020°43'0 0.0
2018-Jul-12 22:00N 44°42' E 020°43'0 0.0
2018-Jul-12 21:30N 44°42' E 020°43'0 0.5
2018-Jul-12 21:00N 44°41' E 020°43'2 3.5
2018-Jul-12 20:30N 44°40' E 020°45'2 3.4
2018-Jul-12 20:00N 44°40' E 020°47'2 3.1
2018-Jul-12 19:30N 44°39' E 020°49'2 3.7
2018-Jul-12 18:59N 44°40' E 020°52'2 3.6
2018-Jul-12 18:29N 44°40' E 020°54'1 0.7
2018-Jul-12 17:37N 44°40' E 020°55'0 0.0
2018-Jul-12 17:17N 44°40' E 020°55'0 0.0
2018-Jul-12 15:39N 44°40' E 020°55'0 1.7
2018-Jul-12 15:30N 44°40' E 020°55'2 3.8
2018-Jul-12 15:00N 44°41' E 020°57'3 4.0
2018-Jul-12 14:08N 44°43' E 021°01'0 3.8
2018-Jul-12 14:00N 44°43' E 021°02'1 1.0
2018-Jul-12 13:28N 44°43' E 021°02'2 4.3
2018-Jul-12 12:57N 44°41' E 021°03'2 0.2
2018-Jul-12 00:09N 44°43' E 021°02'0 0.0
2018-Jul-12 00:00N 44°43' E 021°02'0 0.0
2018-Jul-11 23:30N 44°43' E 021°02'0 0.0
2018-Jul-11 23:00N 44°43' E 021°02'0 0.0
2018-Jul-11 22:30N 44°43' E 021°02'0 0.0
2018-Jul-11 22:00N 44°43' E 021°02'0 0.0
2018-Jul-11 21:31N 44°43' E 021°02'0 0.0
2018-Jul-11 21:00N 44°43' E 021°02'0 0.0
2018-Jul-11 20:31N 44°43' E 021°02'0 0.0
2018-Jul-11 20:00N 44°43' E 021°02'0 0.0
2018-Jul-11 19:30N 44°43' E 021°02'0 0.1
2018-Jul-11 19:00N 44°43' E 021°02'0 0.0
2018-Jul-10 19:59N 44°43' E 021°02'3 5.7
2018-Jul-10 19:30N 44°43' E 020°59'3 6.8
2018-Jul-10 19:01N 44°40' E 020°55'3 6.8
2018-Jul-10 18:31N 44°39' E 020°50'3 6.9
2018-Jul-10 18:00N 44°40' E 020°46'3 6.4
2018-Jul-10 17:31N 44°42' E 020°42'3 6.3
2018-Jul-10 17:01N 44°44' E 020°40'3 6.0
2018-Jul-10 16:30N 44°47' E 020°38'3 6.0
2018-Jul-10 16:01N 44°50' E 020°39'3 5.5
2018-Jul-10 15:31N 44°51' E 020°35'3 6.4
2018-Jul-10 15:01N 44°50' E 020°31'3 6.4
2018-Jul-10 14:30N 44°50' E 020°26'3 6.6
2018-Jul-10 14:00N 44°52' E 020°22'3 6.6
2018-Jul-10 13:30N 44°55' E 020°20'3 6.8
2018-Jul-10 13:00N 44°58' E 020°17'3 5.8
2018-Jul-10 12:30N 45°00' E 020°20'3 5.6
2018-Jul-10 12:00N 45°03' E 020°22'17 5.1
2018-Jul-10 08:38N 45°19' E 020°15'1 4.8
2018-Jul-10 08:29N 45°20' E 020°15'2 3.7
2018-Jul-10 08:00N 45°21' E 020°14'7 4.6
2018-Jul-10 06:23N 45°28' E 020°10'2 5.5
2018-Jul-10 06:00N 45°30' E 020°08'5 3.0
2018-Jul-10 04:19N 45°35' E 020°08'0 0.3
2018-Jul-10 03:26N 45°35' E 020°08'  

Dump ship's entire track history